To NAV CANADA Home Page Login to a new session Search on AWWS site Feedback and Comments Disclaimer Vers la page française équivalente Tips FAQ What's new on the site To the Forecasts and Observations / NOTAM section To "File a Flight Plan" website Publications and other links Update of the User's profile FIC Telephone Numbers My Weather Data Folder Route Weather Data Regional Weather Data Local Weather Data To the Forecasts and Observations / NOTAM section
Request Generated 08/28/2016 at 08:35:34 UTC . Weather information available at that time is displayed.

METAR/TAF

HIGH LEVEL/AB    (show WxCam)

METAR CYOJ 280800Z AUTO 33009G15KT 9SM OVC018 09/06 A3002 RMK SLP178=
SPECI CYOJ 280729Z AUTO 34008KT 9SM BKN018 BKN037 09/06 A3001 RMK
SLP175=
SPECI CYOJ 280718Z AUTO 33006KT 9SM SCT018 BKN037 BKN080 08/06 A3000
RMK SLP173=
SPECI CYOJ 280709Z AUTO 34007KT 9SM BKN018 BKN037 BKN080 08/06 A3000
RMK SLP173=
SPECI CYOJ 280705Z AUTO 33007KT 9SM SCT018 BKN037 BKN080 08/06 A3000
RMK SLP172=
METAR CYOJ 280700Z AUTO 33007KT 9SM BKN018 BKN080 08/06 A3000 RMK
SLP172=
SPECI CYOJ 280638Z AUTO 35007KT 9SM BKN020 BKN039 09/06 A3000 RMK
SLP171=
METAR CYOJ 280600Z AUTO 34008KT 9SM SCT023 OVC080 09/06 A2999 RMK
SLP168=

TAF CYOJ 280638Z 2807/2819 34008KT P6SM SCT020 BKN040 TEMPO 2807/2812
BKN020 OVC040
FM281200 33008KT P6SM SCT030 TEMPO 2812/2818 BKN030
FM281800 34012KT P6SM BKN040
RMK FCST BASED ON AUTO OBS. NXT FCST BY 281300Z=
Your time UTC time
Weather data provided by Environment Canada and NAV CANADA